Time;durP1;ratioP1;P1;durP2;ratioP2;P2;SDS_P1;SDS_P2;PMS_P1;PMS_P2;Temp;Humidity;BMP_temperature;BMP_pressure;BME280_temperature;BME280_humidity;BME280_pressure;Samples;Min_cycle;Max_cycle;Signal;HPM_P1;HPM_P2
2022/01/15 00:02:19;;;;;;;37.03;22.57;;;;;;;3.74;63.38;97934.28;5063243;28;20487;-70
2022/01/15 00:04:44;;;;;;;40.57;23.70;;;;;;;3.66;63.26;97929.56;5070120;28;20432;-70
2022/01/15 00:07:10;;;;;;;37.80;23.93;;;;;;;3.47;63.91;97935.00;5071969;28;20447;-71
2022/01/15 00:09:37;;;;;;;39.77;24.53;;;;;;;3.50;64.00;97927.03;5070540;28;20365;-71
2022/01/15 00:12:03;;;;;;;44.73;23.87;;;;;;;3.53;64.31;97927.69;5071773;28;20232;-71
2022/01/15 00:14:36;;;;;;;35.10;22.10;;;;;;;3.56;64.32;97920.66;5058627;28;20567;-70
2022/01/15 00:17:07;;;;;;;42.80;24.33;;;;;;;3.63;63.38;97916.81;5068396;28;20476;-70
2022/01/15 00:19:43;;;;;;;40.60;24.40;;;;;;;3.63;63.67;97919.41;5069876;28;21020;-71
2022/01/15 00:22:14;;;;;;;43.40;24.20;;;;;;;3.66;63.95;97919.19;5068482;28;20428;-72
2022/01/15 00:24:40;;;;;;;39.77;23.20;;;;;;;3.68;63.58;97913.00;5071886;28;20424;-70
2022/01/15 00:27:07;;;;;;;40.30;22.43;;;;;;;3.73;63.55;97917.91;5069130;28;20447;-70
2022/01/15 00:29:34;;;;;;;42.97;23.80;;;;;;;3.65;63.42;97909.78;5069162;28;20464;-71
2022/01/15 00:32:05;;;;;;;40.50;24.03;;;;;;;3.61;63.36;97906.50;5073385;28;20420;-71
2022/01/15 00:34:31;;;;;;;37.13;23.50;;;;;;;3.44;63.43;97906.69;5060209;28;20429;-69
2022/01/15 00:36:56;;;;;;;37.57;22.17;;;;;;;3.48;63.73;97908.16;5078273;28;20521;-72
2022/01/15 00:39:22;;;;;;;37.03;22.97;;;;;;;3.46;63.67;97908.25;5057529;28;20199;-71
2022/01/15 00:41:48;;;;;;;43.50;22.73;;;;;;;3.50;63.66;97904.56;5065720;28;20189;-70
2022/01/15 00:44:16;;;;;;;38.57;23.33;;;;;;;3.52;63.12;97910.50;5074486;28;20193;-72
2022/01/15 00:46:46;;;;;;;32.13;22.27;;;;;;;3.58;62.89;97911.91;5074261;28;20641;-71
2022/01/15 00:49:12;;;;;;;38.77;22.83;;;;;;;3.42;63.07;97903.34;5072374;28;20417;-69
2022/01/15 00:51:38;;;;;;;38.53;23.50;;;;;;;3.23;63.21;97909.59;5073995;28;20507;-70
2022/01/15 00:54:04;;;;;;;39.83;23.40;;;;;;;3.26;63.67;97903.41;5065055;28;20175;-73
2022/01/15 00:56:33;;;;;;;38.63;23.47;;;;;;;3.00;64.39;97913.53;5055582;28;20456;-70
2022/01/15 00:58:59;;;;;;;41.30;24.00;;;;;;;2.74;65.17;97903.69;5069849;28;20468;-71
2022/01/15 01:01:24;;;;;;;42.50;23.90;;;;;;;2.91;64.92;97904.50;5063193;28;20417;-70
2022/01/15 01:03:50;;;;;;;34.53;21.90;;;;;;;2.85;64.67;97891.91;5057931;28;20187;-70
2022/01/15 01:06:16;;;;;;;35.73;22.50;;;;;;;2.91;64.92;97892.38;5068375;28;20238;-71
2022/01/15 01:08:42;;;;;;;35.80;21.10;;;;;;;2.70;65.77;97891.00;5068734;28;20423;-71
2022/01/15 01:11:14;;;;;;;35.43;23.60;;;;;;;2.68;65.81;97890.25;5076144;28;21026;-72
2022/01/15 01:24:33;;;;;;;43.27;23.90;;;;;;;2.72;66.73;97881.41;5048762;28;20864;-73
2022/01/15 01:27:03;;;;;;;38.37;23.73;;;;;;;2.97;65.99;97867.06;5076630;28;20448;-71
2022/01/15 01:29:38;;;;;;;40.43;24.43;;;;;;;3.00;65.78;97861.72;5068399;28;20417;-72
2022/01/15 01:32:14;;;;;;;41.43;23.37;;;;;;;3.17;65.70;97864.16;5074019;28;20522;-72
2022/01/15 01:34:45;;;;;;;38.50;23.90;;;;;;;3.05;65.54;97859.69;5073558;28;20843;-72
2022/01/15 01:37:19;;;;;;;40.27;24.53;;;;;;;2.72;66.47;97863.28;5067600;28;20457;-72
2022/01/15 01:39:50;;;;;;;43.97;24.90;;;;;;;2.90;66.45;97856.22;5071450;28;20460;-70
2022/01/15 01:45:05;;;;;;;61.27;34.43;;;;;;;2.71;66.13;97866.81;5066812;28;20897;-71
2022/01/15 01:47:40;;;;;;;46.23;26.90;;;;;;;3.00;65.40;97861.72;5053803;28;20467;-72
2022/01/15 01:50:16;;;;;;;48.13;26.40;;;;;;;3.10;64.66;97862.84;5077854;28;20427;-71
2022/01/15 01:52:47;;;;;;;45.90;24.40;;;;;;;3.17;64.44;97871.09;5076311;28;20430;-72
2022/01/15 01:55:13;;;;;;;46.23;25.00;;;;;;;3.10;64.48;97875.81;5073358;28;20474;-72
2022/01/15 01:57:40;;;;;;;45.43;26.57;;;;;;;3.00;64.67;97869.50;5074753;28;20451;-72
2022/01/15 02:00:11;;;;;;;38.73;24.50;;;;;;;3.16;64.66;97870.25;5068425;28;20912;-72
2022/01/15 02:02:36;;;;;;;41.30;26.53;;;;;;;3.07;64.83;97878.56;5066777;28;20424;-71
2022/01/15 02:05:03;;;;;;;42.93;24.83;;;;;;;3.11;64.73;97880.06;5074350;28;20432;-71
2022/01/15 02:07:29;;;;;;;45.30;28.27;;;;;;;3.10;64.51;97878.41;5068904;28;20892;-72
2022/01/15 02:09:57;;;;;;;42.47;24.13;;;;;;;3.06;64.48;97866.53;5070057;28;20424;-72
2022/01/15 02:12:23;;;;;;;35.70;23.43;;;;;;;3.00;64.74;97862.53;5072235;28;20549;-70
2022/01/15 02:14:49;;;;;;;39.60;24.80;;;;;;;3.05;64.70;97870.03;5066303;28;20421;-71
2022/01/15 02:17:20;;;;;;;35.07;23.30;;;;;;;2.98;64.60;97874.75;5073817;28;20555;-70
2022/01/15 02:25:12;;;;;;;50.53;26.20;;;;;;;2.98;64.84;97873.91;5053087;28;20421;-70
2022/01/15 02:27:38;;;;;;;43.17;24.80;;;;;;;2.87;65.40;97875.38;5067179;28;20494;-72
2022/01/15 02:30:04;;;;;;;42.30;24.87;;;;;;;2.96;65.22;97860.22;5066443;28;20397;-71
2022/01/15 02:32:34;;;;;;;47.77;24.00;;;;;;;3.04;65.00;97860.59;5065372;28;20194;-71
2022/01/15 02:35:01;;;;;;;42.40;23.70;;;;;;;3.05;64.54;97852.75;5073411;28;20754;-71
2022/01/15 02:37:28;;;;;;;40.17;25.00;;;;;;;3.03;64.83;97856.34;5051671;28;20464;-71
2022/01/15 02:39:55;;;;;;;38.87;23.00;;;;;;;3.05;65.00;97857.94;5068006;28;20978;-71
2022/01/15 02:42:22;;;;;;;45.93;24.53;;;;;;;3.05;64.59;97857.09;5064634;28;20523;-70
2022/01/15 02:44:48;;;;;;;33.13;22.77;;;;;;;2.98;65.02;97843.66;5072686;28;20459;-71
2022/01/15 02:49:58;;;;;;;38.93;24.10;;;;;;;2.91;64.88;97843.19;5073049;28;20182;-70
2022/01/15 02:52:23;;;;;;;39.90;25.40;;;;;;;2.89;64.94;97832.09;5073801;28;20450;-71
2022/01/15 02:54:49;;;;;;;35.57;23.07;;;;;;;2.91;64.75;97832.81;5073464;28;20194;-71
2022/01/15 02:57:14;;;;;;;42.33;23.20;;;;;;;2.99;64.69;97828.97;5072850;28;20288;-72
2022/01/15 02:59:40;;;;;;;43.60;25.47;;;;;;;2.87;64.55;97826.19;5068625;28;20243;-71
2022/01/15 03:02:06;;;;;;;41.20;24.10;;;;;;;2.71;65.05;97823.63;5062336;28;20250;-70
2022/01/15 03:04:32;;;;;;;58.53;32.37;;;;;;;2.30;66.12;97837.97;5072617;28;20519;-69
2022/01/15 03:06:57;;;;;;;48.47;27.93;;;;;;;2.67;65.38;97824.72;5070901;28;20207;-70
2022/01/15 03:09:23;;;;;;;40.93;25.33;;;;;;;2.81;64.94;97820.53;5072741;28;20178;-70
2022/01/15 03:11:49;;;;;;;51.73;28.00;;;;;;;2.79;64.78;97812.81;5072989;28;20274;-70
2022/01/15 03:14:18;;;;;;;62.43;36.60;;;;;;;2.82;64.60;97812.66;5064242;28;20244;-70
2022/01/15 03:16:44;;;;;;;66.23;39.47;;;;;;;2.65;64.85;97810.22;5072781;28;20210;-69
2022/01/15 03:19:09;;;;;;;57.00;32.07;;;;;;;2.59;64.94;97804.47;5071178;28;20457;-70
2022/01/15 03:21:35;;;;;;;45.83;28.87;;;;;;;2.74;64.54;97805.31;5071484;28;20628;-69
2022/01/15 03:24:02;;;;;;;44.73;28.03;;;;;;;2.15;66.00;97797.41;5060240;28;20178;-70
2022/01/15 03:26:27;;;;;;;40.23;25.27;;;;;;;2.19;66.25;97801.53;5076158;28;20242;-71
2022/01/15 03:28:53;;;;;;;39.50;24.57;;;;;;;2.09;66.87;97803.78;5075212;28;21098;-71
2022/01/15 03:31:18;;;;;;;37.40;24.30;;;;;;;2.24;66.74;97796.09;5066397;28;20234;-69
2022/01/15 03:33:44;;;;;;;42.30;24.37;;;;;;;2.25;66.49;97798.59;5072818;28;20178;-69
2022/01/15 03:36:09;;;;;;;37.47;24.10;;;;;;;2.24;66.60;97796.09;5071605;28;20568;-70
2022/01/15 03:38:35;;;;;;;42.07;23.63;;;;;;;2.32;66.62;97793.94;5071996;28;20285;-70
2022/01/15 03:41:01;;;;;;;38.30;22.63;;;;;;;2.45;66.12;97784.56;5071890;28;20194;-70
2022/01/15 03:43:27;;;;;;;46.80;24.63;;;;;;;2.61;66.10;97784.50;5067707;28;20430;-69
2022/01/15 03:45:52;;;;;;;35.50;23.00;;;;;;;2.64;65.68;97782.66;5065749;28;20213;-69
2022/01/15 03:48:18;;;;;;;34.43;22.93;;;;;;;2.64;65.70;97790.44;5072006;28;20174;-69
2022/01/15 03:50:43;;;;;;;37.10;23.83;;;;;;;2.58;65.23;97784.66;5071977;28;20209;-69
2022/01/15 03:53:09;;;;;;;37.83;22.60;;;;;;;2.61;65.26;97786.25;5071704;28;20190;-68
2022/01/15 03:55:35;;;;;;;37.60;22.33;;;;;;;2.08;66.22;97773.66;5070613;28;20190;-70
2022/01/15 03:58:00;;;;;;;35.93;22.70;;;;;;;2.06;66.87;97772.09;5070462;28;20234;-69
2022/01/15 04:00:27;;;;;;;33.43;22.33;;;;;;;2.03;67.14;97767.06;5065678;28;20197;-70
2022/01/15 04:02:54;;;;;;;35.23;22.23;;;;;;;1.56;67.79;97772.16;5065214;28;20178;-70
2022/01/15 04:05:21;;;;;;;35.47;22.17;;;;;;;1.98;66.54;97773.34;5070636;28;20417;-70
2022/01/15 04:07:48;;;;;;;37.97;22.73;;;;;;;1.81;67.14;97763.94;5071510;28;20435;-68
2022/01/15 04:10:15;;;;;;;41.03;24.17;;;;;;;1.76;67.65;97765.09;5071142;28;20424;-70
2022/01/15 04:12:40;;;;;;;37.00;23.53;;;;;;;1.59;67.88;97768.56;5063251;28;20425;-70
2022/01/15 04:15:07;;;;;;;41.70;24.23;;;;;;;1.92;67.62;97762.50;5071032;28;20950;-70
2022/01/15 04:17:33;;;;;;;35.13;22.70;;;;;;;2.14;66.68;97777.69;5065297;28;20202;-70
2022/01/15 04:19:59;;;;;;;37.23;22.60;;;;;;;2.20;66.04;97769.56;5051385;28;21011;-69
2022/01/15 04:22:24;;;;;;;35.50;22.43;;;;;;;2.27;65.76;97763.09;5056429;28;20186;-70
2022/01/15 04:24:50;;;;;;;38.07;22.33;;;;;;;2.27;65.80;97763.09;5056794;28;20199;-69
2022/01/15 04:27:15;;;;;;;34.40;21.60;;;;;;;2.34;65.86;97760.19;5050621;28;20207;-68
2022/01/15 04:29:41;;;;;;;43.03;23.97;;;;;;;2.38;65.78;97759.09;5050378;28;20240;-69
2022/01/15 04:32:07;;;;;;;32.40;21.43;;;;;;;2.45;65.42;97755.25;5051084;28;20205;-69
2022/01/15 04:34:33;;;;;;;35.50;21.57;;;;;;;2.53;65.30;97770.31;5051131;28;20187;-69
2022/01/15 04:37:12;;;;;;;35.07;22.40;;;;;;;2.53;65.04;97760.78;5057961;28;20440;-69
2022/01/15 04:39:39;;;;;;;43.63;22.40;;;;;;;2.47;64.80;97763.75;5050813;28;20215;-70
2022/01/15 04:42:05;;;;;;;34.03;21.00;;;;;;;2.51;65.23;97764.41;5051171;28;20503;-70
2022/01/15 04:44:30;;;;;;;30.63;20.87;;;;;;;2.59;64.96;97762.19;5056335;28;20425;-70
2022/01/15 04:46:56;;;;;;;31.13;20.63;;;;;;;2.66;64.77;97765.25;5055498;28;20273;-70
2022/01/15 04:49:22;;;;;;;35.07;21.47;;;;;;;2.68;64.48;97766.00;5051527;28;20201;-69
2022/01/15 04:51:47;;;;;;;35.90;21.40;;;;;;;2.69;64.49;97765.94;5048777;28;20183;-69
2022/01/15 04:54:13;;;;;;;33.80;21.90;;;;;;;2.70;64.15;97770.19;5051158;28;20599;-69
2022/01/15 04:56:38;;;;;;;32.97;20.90;;;;;;;2.65;64.10;97761.03;5058049;28;20301;-69
2022/01/15 04:59:04;;;;;;;35.03;21.50;;;;;;;2.63;64.18;97765.47;5050425;28;20207;-69
2022/01/15 05:01:30;;;;;;;30.60;20.13;;;;;;;2.63;64.18;97762.88;5048924;28;20179;-69
2022/01/15 05:03:55;;;;;;;34.67;21.80;;;;;;;2.63;63.92;97765.47;5046253;28;20221;-70
2022/01/15 05:06:21;;;;;;;38.10;21.40;;;;;;;2.51;63.74;97767.84;5048729;28;20210;-70
2022/01/15 05:08:51;;;;;;;33.80;19.73;;;;;;;2.54;64.21;97766.81;5050879;28;20228;-69
2022/01/15 05:11:32;;;;;;;31.03;20.20;;;;;;;2.55;63.63;97763.31;5050277;28;20229;-68
2022/01/15 05:13:58;;;;;;;33.63;20.67;;;;;;;2.50;63.48;97768.75;5049268;28;20425;-70
2022/01/15 05:16:23;;;;;;;32.77;20.87;;;;;;;2.51;63.59;97769.56;5050335;28;20449;-70
2022/01/15 05:18:49;;;;;;;32.87;20.50;;;;;;;2.52;63.65;97768.66;5049161;28;20294;-69
2022/01/15 05:21:14;;;;;;;32.37;20.67;;;;;;;2.50;63.34;97766.16;5052066;28;20606;-70
2022/01/15 05:23:40;;;;;;;30.00;19.20;;;;;;;2.46;63.52;97764.66;5052884;28;20191;-70
2022/01/15 05:26:06;;;;;;;31.27;20.07;;;;;;;2.45;63.49;97768.19;5049133;28;20206;-69
2022/01/15 05:28:31;;;;;;;31.43;19.40;;;;;;;2.43;63.33;97772.59;5058706;28;20548;-70
2022/01/15 05:30:57;;;;;;;30.03;19.80;;;;;;;2.40;63.28;97775.34;5049086;28;20187;-70
2022/01/15 05:33:22;;;;;;;40.60;20.67;;;;;;;2.41;63.47;97771.84;5041880;28;20194;-70
2022/01/15 05:35:48;;;;;;;33.90;20.47;;;;;;;2.41;63.62;97770.09;5050185;28;20211;-70
2022/01/15 05:38:13;;;;;;;30.70;19.07;;;;;;;2.44;63.39;97762.19;5050226;28;20580;-69
2022/01/15 05:40:39;;;;;;;28.90;18.30;;;;;;;2.39;63.32;97758.19;5056091;28;20204;-69
2022/01/15 05:43:05;;;;;;;31.80;19.53;;;;;;;2.35;63.05;97760.09;5051375;28;20194;-69
2022/01/15 05:45:30;;;;;;;31.10;20.33;;;;;;;2.28;63.56;97759.59;5050249;28;20191;-69
2022/01/15 05:47:56;;;;;;;30.57;20.10;;;;;;;2.30;63.52;97768.13;5050227;28;20215;-68
2022/01/15 05:50:22;;;;;;;28.17;19.20;;;;;;;2.23;63.63;97776.31;5052668;28;20573;-70
2022/01/15 05:52:47;;;;;;;32.30;18.93;;;;;;;2.21;63.55;97779.00;5049184;28;20560;-69
2022/01/15 05:55:13;;;;;;;42.37;23.33;;;;;;;2.23;63.64;97779.75;5042327;28;20194;-70
2022/01/15 05:57:38;;;;;;;33.87;21.63;;;;;;;2.22;63.45;97772.91;5054008;28;20224;-68
2022/01/15 06:00:06;;;;;;;60.07;23.77;;;;;;;2.20;63.48;97766.97;5051864;28;20217;-71
2022/01/15 06:02:32;;;;;;;36.63;20.97;;;;;;;2.26;63.47;97769.22;5046601;28;20615;-69
2022/01/15 06:04:57;;;;;;;35.33;21.67;;;;;;;2.29;62.94;97770.81;5062022;28;20421;-68
2022/01/15 06:07:23;;;;;;;35.33;20.97;;;;;;;2.25;63.36;97762.38;5062433;28;20211;-70
2022/01/15 06:09:48;;;;;;;31.80;20.20;;;;;;;2.18;63.86;97778.34;5051492;28;20229;-70
2022/01/15 06:12:14;;;;;;;30.87;20.27;;;;;;;2.21;63.63;97781.56;5061729;28;20618;-69
2022/01/15 06:14:40;;;;;;;33.73;20.77;;;;;;;2.29;63.69;97763.03;5053954;28;20297;-70
2022/01/15 06:17:08;;;;;;;35.20;19.67;;;;;;;2.33;63.37;97764.56;5053106;28;20314;-70
2022/01/15 06:19:35;;;;;;;31.83;19.27;;;;;;;2.34;63.36;97771.34;5050188;28;20246;-69
2022/01/15 06:22:01;;;;;;;36.37;20.33;;;;;;;2.33;63.68;97764.56;5055838;28;20439;-70
2022/01/15 06:24:27;;;;;;;30.53;19.60;;;;;;;2.35;63.69;97767.03;5061942;28;20446;-69
2022/01/15 06:26:52;;;;;;;30.40;19.90;;;;;;;2.39;64.10;97768.53;5052401;28;20792;-69
2022/01/15 06:29:19;;;;;;;34.27;19.77;;;;;;;2.38;64.17;97772.88;5060943;28;20239;-70
2022/01/15 06:31:45;;;;;;;31.93;17.90;;;;;;;2.42;64.05;97773.50;5053075;28;20236;-71
2022/01/15 06:34:10;;;;;;;29.60;18.10;;;;;;;2.40;64.17;97773.63;5060899;28;21014;-69
2022/01/15 06:36:36;;;;;;;35.97;18.70;;;;;;;2.37;64.23;97770.38;5065837;28;20214;-71
2022/01/15 06:39:02;;;;;;;28.47;19.70;;;;;;;2.32;64.23;97757.69;5071998;28;20217;-70
2022/01/15 06:41:27;;;;;;;32.87;19.50;;;;;;;2.34;64.35;97765.38;5072694;28;20182;-70
2022/01/15 06:43:53;;;;;;;34.77;19.67;;;;;;;2.34;64.08;97765.38;5072546;28;20428;-70
2022/01/15 06:46:19;;;;;;;27.63;17.47;;;;;;;2.35;63.97;97762.69;5072048;28;20214;-70
2022/01/15 06:48:44;;;;;;;33.23;20.00;;;;;;;2.28;63.97;97764.78;5072979;28;20182;-70
2022/01/15 06:51:10;;;;;;;35.03;20.60;;;;;;;2.21;64.05;97768.66;5071579;28;20225;-70
2022/01/15 06:53:35;;;;;;;33.53;19.57;;;;;;;2.24;64.12;97758.13;5073609;28;20182;-70
2022/01/15 06:56:01;;;;;;;33.30;21.60;;;;;;;2.23;63.98;97751.28;5073297;28;20202;-69
2022/01/15 06:58:26;;;;;;;34.17;20.97;;;;;;;2.24;64.23;97752.13;5070257;28;20206;-71
2022/01/15 07:00:52;;;;;;;32.90;20.10;;;;;;;2.25;63.76;97749.47;5071036;28;20217;-71
2022/01/15 07:03:17;;;;;;;30.70;20.20;;;;;;;2.25;64.07;97748.59;5065321;28;20185;-69
2022/01/15 07:05:43;;;;;;;35.50;21.80;;;;;;;2.24;64.05;97752.13;5070050;28;20209;-70
2022/01/15 07:08:09;;;;;;;30.73;20.10;;;;;;;2.22;63.87;97747.03;5072607;28;20189;-70
2022/01/15 07:10:38;;;;;;;37.17;22.73;;;;;;;2.21;63.88;97760.88;5072507;28;20535;-71
2022/01/15 07:13:05;;;;;;;34.77;22.40;;;;;;;2.17;64.12;97759.38;5071906;28;20214;-69
2022/01/15 07:15:32;;;;;;;36.10;22.43;;;;;;;2.18;64.19;97755.06;5073185;28;20420;-69
2022/01/15 07:17:59;;;;;;;33.80;20.83;;;;;;;2.20;64.03;97743.69;5069990;28;20429;-70
2022/01/15 07:20:25;;;;;;;32.13;21.07;;;;;;;2.21;64.08;97745.38;5071511;28;20581;-70
2022/01/15 07:22:51;;;;;;;30.10;20.47;;;;;;;2.20;63.99;97743.69;5069830;28;20432;-71
2022/01/15 07:25:16;;;;;;;32.97;22.27;;;;;;;2.21;64.27;97740.19;5072513;28;20420;-70
2022/01/15 07:27:43;;;;;;;37.50;21.90;;;;;;;2.14;64.52;97742.28;5073465;28;20206;-71
2022/01/15 07:30:10;;;;;;;35.30;21.53;;;;;;;2.22;64.56;97735.84;5072443;28;20194;-71
2022/01/15 07:32:35;;;;;;;36.67;22.50;;;;;;;2.22;64.42;97743.59;5072462;28;20455;-70
2022/01/15 07:35:02;;;;;;;38.23;21.77;;;;;;;2.26;64.63;97735.59;5068772;28;20429;-70
2022/01/15 07:37:27;;;;;;;30.63;20.57;;;;;;;2.27;64.50;97734.66;5070272;28;20459;-71
2022/01/15 07:39:53;;;;;;;32.30;20.70;;;;;;;2.29;64.41;97732.81;5071900;28;20461;-70
2022/01/15 07:42:19;;;;;;;31.23;20.37;;;;;;;2.36;64.34;97728.13;5062675;28;20186;-70
2022/01/15 07:44:45;;;;;;;30.40;19.27;;;;;;;2.43;64.74;97733.78;5072378;28;20216;-71
2022/01/15 07:47:12;;;;;;;35.80;21.87;;;;;;;2.40;64.43;97742.56;5071553;28;20468;-73
2022/01/15 07:49:38;;;;;;;33.77;21.50;;;;;;;2.44;64.39;97730.28;5077867;28;20174;-70
2022/01/15 07:52:03;;;;;;;34.73;20.93;;;;;;;2.50;64.49;97732.53;5072690;28;20517;-69
2022/01/15 07:54:29;;;;;;;31.20;20.93;;;;;;;2.60;64.30;97735.41;5070942;28;20519;-70
2022/01/15 07:56:55;;;;;;;33.53;20.63;;;;;;;2.66;64.32;97739.38;5068721;28;20217;-71
2022/01/15 07:59:22;;;;;;;32.87;21.70;;;;;;;2.67;64.45;97731.53;5070427;28;20226;-71
2022/01/15 08:01:47;;;;;;;34.00;21.33;;;;;;;2.72;64.71;97731.28;5066414;28;20205;-71
2022/01/15 08:04:13;;;;;;;32.23;20.87;;;;;;;2.69;64.80;97727.13;5070968;28;20428;-71
2022/01/15 08:06:40;;;;;;;38.90;21.70;;;;;;;2.80;64.65;97721.28;5069561;28;20206;-71
2022/01/15 08:09:06;;;;;;;31.60;20.23;;;;;;;2.79;64.73;97724.78;5071984;28;20269;-69
2022/01/15 08:11:31;;;;;;;38.50;21.23;;;;;;;2.90;64.71;97722.41;5072198;28;20432;-69
2022/01/15 08:13:57;;;;;;;34.67;21.90;;;;;;;2.92;64.77;97720.56;5070627;28;20186;-71
2022/01/15 08:16:23;;;;;;;33.30;21.33;;;;;;;2.66;65.77;97726.44;5055391;28;20206;-69
2022/01/15 08:18:48;;;;;;;59.83;23.33;;;;;;;2.68;65.45;97727.19;5072833;28;20206;-71
2022/01/15 08:21:14;;;;;;;31.23;21.83;;;;;;;2.60;65.80;97728.47;5055735;28;20234;-70
2022/01/15 08:23:39;;;;;;;38.03;23.37;;;;;;;2.77;66.25;97721.50;5056271;28;20190;-70
2022/01/15 08:26:05;;;;;;;39.50;23.90;;;;;;;2.96;65.82;97716.03;5062337;28;20202;-70
2022/01/15 08:28:31;;;;;;;34.93;23.03;;;;;;;3.18;65.31;97715.56;5072563;28;20638;-71
2022/01/15 08:30:56;;;;;;;34.83;23.90;;;;;;;3.33;65.09;97712.97;5064028;28;20186;-69
2022/01/15 08:33:22;;;;;;;37.93;26.60;;;;;;;3.43;64.83;97706.28;5071104;28;20543;-70
2022/01/15 08:35:47;;;;;;;48.23;30.70;;;;;;;3.52;64.70;97721.28;5072604;28;20259;-70
2022/01/15 08:38:13;;;;;;;49.00;30.43;;;;;;;3.60;64.26;97715.59;5071976;28;20209;-71
2022/01/15 08:40:39;;;;;;;36.83;25.10;;;;;;;3.67;64.13;97713.44;5069187;28;20186;-71
2022/01/15 08:43:04;;;;;;;37.63;26.70;;;;;;;3.70;64.22;97710.66;5079149;28;20229;-71
2022/01/15 08:45:30;;;;;;;35.07;24.63;;;;;;;3.83;64.77;97714.16;5079649;28;20190;-71
2022/01/15 08:47:56;;;;;;;40.60;26.67;;;;;;;3.94;64.74;97708.28;5072690;28;20206;-70
2022/01/15 08:50:23;;;;;;;38.93;23.00;;;;;;;4.01;64.17;97713.91;5054574;28;20535;-71
2022/01/15 08:52:49;;;;;;;36.00;24.60;;;;;;;4.14;64.71;97707.00;5069947;28;20435;-70
2022/01/15 08:55:16;;;;;;;37.70;26.03;;;;;;;4.23;64.40;97696.97;5071303;28;20432;-70
2022/01/15 08:57:43;;;;;;;41.13;26.80;;;;;;;4.24;63.78;97698.63;5071348;28;20452;-69
2022/01/15 09:00:12;;;;;;;38.97;25.43;;;;;;;4.28;64.32;97698.31;5070752;28;20600;-69
2022/01/15 09:02:38;;;;;;;35.10;23.50;;;;;;;4.45;64.41;97693.78;5065142;28;20416;-72
2022/01/15 09:05:04;;;;;;;42.80;26.50;;;;;;;4.56;63.40;97698.25;5066775;28;20908;-68
2022/01/15 09:07:30;;;;;;;107.20;61.50;;;;;;;4.65;63.25;97702.84;5070978;28;20271;-70
2022/01/15 09:09:55;;;;;;;37.60;25.13;;;;;;;4.72;63.13;97688.50;5070200;28;20740;-69
2022/01/15 09:12:22;;;;;;;33.30;23.50;;;;;;;4.88;63.17;97706.47;5069833;28;20256;-68
2022/01/15 09:14:49;;;;;;;36.90;22.80;;;;;;;4.96;62.31;97697.34;5070025;28;20189;-69
2022/01/15 09:17:15;;;;;;;32.67;22.43;;;;;;;5.05;62.51;97700.13;5071231;28;20441;-71
2022/01/15 09:19:41;;;;;;;28.00;19.90;;;;;;;5.20;61.95;97700.00;5071280;28;20806;-70
2022/01/15 09:22:11;;;;;;;26.17;18.60;;;;;;;5.32;61.42;97693.94;5048176;28;20184;-69
2022/01/15 09:24:36;;;;;;;36.73;22.80;;;;;;;5.25;61.61;97697.06;5065980;28;20201;-71
2022/01/15 09:30:12;;;;;;;30.40;19.47;;;;;;;5.48;60.86;97687.69;5067227;28;20449;-70
2022/01/15 09:32:32;;;;;;;30.73;19.77;;;;;;;5.58;60.12;97686.09;5073598;28;20420;-70
2022/01/15 09:34:57;;;;;;;31.30;20.07;;;;;;;5.76;59.74;97690.91;5072601;28;20531;-70
2022/01/15 09:37:23;;;;;;;28.70;20.53;;;;;;;5.82;59.30;97688.72;5056864;28;20289;-70
2022/01/15 09:39:50;;;;;;;30.77;21.70;;;;;;;5.86;58.18;97694.50;5075123;28;20578;-72
2022/01/15 09:42:16;;;;;;;32.80;21.67;;;;;;;5.84;58.41;97686.00;5075042;28;20688;-70
2022/01/15 09:44:42;;;;;;;29.97;21.80;;;;;;;5.74;58.55;97695.41;5073793;28;20416;-71
2022/01/15 09:47:09;;;;;;;33.80;21.97;;;;;;;5.74;58.74;97695.41;5073775;28;20573;-69
2022/01/15 09:49:35;;;;;;;38.63;24.70;;;;;;;5.55;59.54;97694.09;5065633;28;20907;-71
2022/01/15 09:52:03;;;;;;;33.40;24.33;;;;;;;5.64;59.13;97690.88;5056724;28;20467;-70
2022/01/15 09:54:29;;;;;;;39.93;26.17;;;;;;;5.59;59.93;97690.34;5077386;28;20189;-71
2022/01/15 09:56:54;;;;;;;34.00;23.50;;;;;;;5.65;59.54;97687.31;5073673;28;20456;-70
2022/01/15 09:59:20;;;;;;;38.83;23.57;;;;;;;5.57;60.14;97687.00;5074691;28;20452;-70
2022/01/15 10:01:46;;;;;;;35.80;24.73;;;;;;;5.63;59.46;97678.78;5070071;28;20668;-70
2022/01/15 10:04:13;;;;;;;38.90;23.03;;;;;;;5.84;59.09;97680.78;5054581;28;20493;-70
2022/01/15 10:07:16;;;;;;;36.83;23.40;;;;;;;5.84;59.21;97686.00;5071459;28;20456;-71
2022/01/15 10:09:50;;;;;;;39.40;25.47;;;;;;;5.67;59.62;97680.22;5068634;28;20512;-69
2022/01/15 10:12:29;;;;;;;35.33;23.20;;;;;;;5.76;59.52;97680.50;5074972;28;20544;-70
2022/01/15 10:15:00;;;;;;;32.00;22.57;;;;;;;5.97;59.16;97676.34;5060419;28;20425;-70
2022/01/15 10:17:28;;;;;;;35.80;23.90;;;;;;;5.78;59.54;97678.63;5065269;28;20452;-70
2022/01/15 10:19:57;;;;;;;38.57;24.90;;;;;;;5.77;58.85;97680.41;5067584;28;20490;-71
2022/01/15 10:22:25;;;;;;;36.87;26.03;;;;;;;5.54;59.93;97682.06;5019900;28;20531;-70
2022/01/15 10:24:55;;;;;;;33.10;23.87;;;;;;;5.76;59.29;97662.31;5070832;28;20429;-70
2022/01/15 10:27:26;;;;;;;32.33;23.30;;;;;;;5.78;58.88;97665.63;5075881;28;20504;-70
2022/01/15 10:29:58;;;;;;;34.23;23.27;;;;;;;5.94;58.66;97660.97;5072634;28;20907;-70
2022/01/15 10:32:26;;;;;;;29.43;22.33;;;;;;;5.94;58.38;97660.13;5066540;28;20503;-71
2022/01/15 10:34:53;;;;;;;36.60;24.30;;;;;;;5.90;58.96;97664.75;5072795;28;20570;-69
2022/01/15 10:37:22;;;;;;;34.90;24.00;;;;;;;6.03;58.47;97656.06;5056268;28;20527;-68
2022/01/15 10:39:56;;;;;;;33.73;22.70;;;;;;;6.22;57.91;97665.97;5073587;28;20572;-70
2022/01/15 10:42:23;;;;;;;37.90;24.53;;;;;;;6.26;57.42;97647.41;5074469;28;20915;-70
2022/01/15 10:44:53;;;;;;;35.07;23.57;;;;;;;5.96;58.19;97648.66;5067669;28;20881;-70
2022/01/15 10:47:21;;;;;;;35.00;22.77;;;;;;;6.15;57.79;97639.56;5072830;28;20448;-70
2022/01/15 10:49:47;;;;;;;33.30;23.73;;;;;;;6.33;57.58;97634.75;5073286;28;20427;-70
2022/01/15 10:52:17;;;;;;;38.80;23.37;;;;;;;6.42;57.25;97631.44;5066596;28;20792;-71
2022/01/15 10:54:53;;;;;;;33.27;23.17;;;;;;;6.31;56.59;97636.63;5058580;28;20183;-71
2022/01/15 10:57:22;;;;;;;33.47;22.30;;;;;;;6.25;57.33;97626.66;5074950;28;20448;-70
2022/01/15 11:00:00;;;;;;;32.43;23.10;;;;;;;6.22;57.54;97629.53;5072302;28;20464;-70
2022/01/15 11:02:26;;;;;;;36.87;23.53;;;;;;;6.36;57.37;97628.47;5068777;28;20613;-70
2022/01/15 11:04:51;;;;;;;34.70;22.57;;;;;;;6.39;56.83;97623.03;5070756;28;20913;-70
2022/01/15 11:07:18;;;;;;;32.23;22.00;;;;;;;6.37;57.41;97617.13;5072245;28;20686;-70
2022/01/15 11:09:45;;;;;;;31.93;21.87;;;;;;;6.26;57.44;97616.16;5073418;28;20680;-70
2022/01/15 11:12:12;;;;;;;29.03;20.30;;;;;;;6.44;57.46;97618.28;5073872;28;20420;-70
2022/01/15 11:14:38;;;;;;;33.50;21.13;;;;;;;6.73;55.89;97617.88;5073483;28;20424;-71
2022/01/15 11:17:05;;;;;;;30.07;21.70;;;;;;;6.88;55.19;97608.88;5073950;28;20531;-71
2022/01/15 11:19:32;;;;;;;31.57;21.80;;;;;;;7.04;55.05;97602.47;5055877;28;20456;-71
2022/01/15 11:22:03;;;;;;;29.50;20.10;;;;;;;6.96;55.43;97602.22;5068904;28;20440;-71
2022/01/15 11:24:29;;;;;;;26.07;20.10;;;;;;;6.90;54.96;97604.38;5072431;28;20425;-70
2022/01/15 11:26:58;;;;;;;30.20;20.60;;;;;;;6.75;55.42;97606.38;5073866;28;20447;-72
2022/01/15 11:29:25;;;;;;;28.97;20.20;;;;;;;6.69;55.28;97600.78;5073895;28;20192;-70
2022/01/15 11:31:59;;;;;;;27.80;20.17;;;;;;;6.85;55.07;97603.06;5071777;28;20888;-70
2022/01/15 11:34:26;;;;;;;32.07;20.60;;;;;;;6.95;54.77;97600.56;5050960;28;20498;-69
2022/01/15 11:36:52;;;;;;;28.43;20.60;;;;;;;7.02;55.14;97589.53;5071646;28;20445;-72
2022/01/15 11:39:21;;;;;;;34.40;20.23;;;;;;;7.12;54.47;97583.63;5073450;28;20776;-71
2022/01/15 11:41:53;;;;;;;31.30;21.50;;;;;;;7.00;54.74;97581.00;5064983;28;20869;-70
2022/01/15 11:44:41;;;;;;;29.73;20.90;;;;;;;6.91;55.52;97574.75;5067916;28;20428;-73
2022/01/15 11:47:21;;;;;;;32.33;24.00;;;;;;;7.10;54.91;97578.50;5050690;28;20488;-70
2022/01/15 11:49:51;;;;;;;38.23;26.00;;;;;;;7.01;55.10;97577.44;5073997;28;20417;-71